createdAt,value
2022-09-05T00:02:53.046Z,2.80
2022-09-05T00:07:08.699Z,2.50
2022-09-05T00:11:40.627Z,2.97
2022-09-05T00:16:19.055Z,3.00
2022-09-05T00:24:26.252Z,2.97
2022-09-05T00:25:32.574Z,2.85
2022-09-05T00:31:06.075Z,2.88
2022-09-05T00:34:51.039Z,2.67
2022-09-05T00:39:01.351Z,3.17
2022-09-05T00:43:08.311Z,3.45
2022-09-05T00:47:14.693Z,3.10
2022-09-05T00:51:42.554Z,2.55
2022-09-05T00:56:16.995Z,3.30
2022-09-05T01:00:19.218Z,3.55
2022-09-05T01:04:32.732Z,3.70
2022-09-05T01:09:14.825Z,3.35
2022-09-05T01:13:43.513Z,3.65
2022-09-05T01:18:00.605Z,3.50
2022-09-05T01:22:07.857Z,3.20
2022-09-05T01:26:18.182Z,2.58
2022-09-05T01:30:23.683Z,2.72
2022-09-05T01:34:42.902Z,2.95
2022-09-05T01:40:12.373Z,2.95
2022-09-05T01:43:49.213Z,2.50
2022-09-05T01:48:21.022Z,2.17
2022-09-05T01:52:39.122Z,2.42
2022-09-05T01:57:22.038Z,2.20
2022-09-05T02:01:48.773Z,2.55
2022-09-05T02:06:31.576Z,3.00
2022-09-05T02:11:06.121Z,2.85
2022-09-05T02:15:16.163Z,2.38
2022-09-05T02:19:30.942Z,2.17
2022-09-05T02:23:44.612Z,2.22
2022-09-05T02:28:06.159Z,2.83
2022-09-05T02:32:46.104Z,2.70
2022-09-05T02:37:08.667Z,2.60
2022-09-05T02:45:12.792Z,3.45
2022-09-05T02:45:58.614Z,2.58
2022-09-05T02:54:40.224Z,2.60
2022-09-05T02:57:39.947Z,3.05
2022-09-05T02:59:35.920Z,2.78
2022-09-05T03:03:47.030Z,2.75
2022-09-05T03:08:12.373Z,2.53
2022-09-05T03:12:34.855Z,2.80
2022-09-05T03:17:07.956Z,2.83
2022-09-05T03:21:32.603Z,2.90
2022-09-05T03:25:58.652Z,3.10
2022-09-05T03:30:20.999Z,2.50
2022-09-05T03:34:41.276Z,3.05
2022-09-05T03:39:16.544Z,2.92
2022-09-05T03:43:30.945Z,3.20
2022-09-05T03:47:41.622Z,3.15
2022-09-05T03:57:12.143Z,3.25
2022-09-05T03:57:32.375Z,3.10
2022-09-05T04:02:49.172Z,3.38
2022-09-05T04:08:28.024Z,2.92
2022-09-05T04:11:05.145Z,3.80
2022-09-05T04:15:09.118Z,3.22
2022-09-05T04:19:34.427Z,3.42
2022-09-05T04:23:48.499Z,2.75
2022-09-05T04:28:09.907Z,3.20
2022-09-05T04:32:31.456Z,2.95
2022-09-05T04:36:35.148Z,3.70
2022-09-05T04:40:57.153Z,2.83
2022-09-05T04:45:11.453Z,3.25
2022-09-05T04:49:23.510Z,2.80
2022-09-05T04:53:36.805Z,3.28
2022-09-05T04:57:57.996Z,2.78
2022-09-05T05:06:08.647Z,3.00
2022-09-05T05:06:46.673Z,3.00
2022-09-05T05:12:55.611Z,3.13
2022-09-05T05:18:10.898Z,2.65
2022-09-05T05:19:44.503Z,3.17
2022-09-05T05:24:10.679Z,3.00
2022-09-05T05:28:22.710Z,3.70
2022-09-05T05:32:45.158Z,3.05
2022-09-05T05:37:18.638Z,3.88
2022-09-05T05:41:25.045Z,4.03
2022-09-05T05:45:31.653Z,3.92
2022-09-05T05:49:57.726Z,3.53
2022-09-05T05:54:05.132Z,3.58
2022-09-05T05:58:32.589Z,3.50
2022-09-05T06:02:41.646Z,3.75
2022-09-05T06:07:09.779Z,3.88
2022-09-05T06:15:00.623Z,3.97
2022-09-05T06:16:39.904Z,3.10
2022-09-05T06:22:10.529Z,3.63
2022-09-05T06:25:59.624Z,3.30
2022-09-05T06:30:04.684Z,3.28
2022-09-05T06:34:35.845Z,2.92
2022-09-05T06:38:46.021Z,3.22
2022-09-05T06:43:12.466Z,3.20
2022-09-05T06:47:33.337Z,2.95
2022-09-05T06:51:44.877Z,3.28
2022-09-05T06:56:28.958Z,3.25
2022-09-05T07:00:36.923Z,2.42
2022-09-05T07:05:23.389Z,3.13
2022-09-05T07:09:28.645Z,2.67
2022-09-05T07:13:58.389Z,2.85
2022-09-05T07:18:10.964Z,2.78
2022-09-05T07:22:48.867Z,2.42
2022-09-05T07:26:53.833Z,2.33
2022-09-05T07:31:37.111Z,2.10
2022-09-05T07:35:41.842Z,2.25
2022-09-05T07:39:55.654Z,2.47
2022-09-05T07:44:05.983Z,2.13
2022-09-05T07:48:14.297Z,1.83
2022-09-05T07:56:54.147Z,1.80
2022-09-05T07:57:22.505Z,1.83
2022-09-05T08:01:12.734Z,1.73
2022-09-05T08:05:21.603Z,2.10
2022-09-05T08:10:09.391Z,1.70
2022-09-05T08:14:44.795Z,1.63
2022-09-05T08:18:50.371Z,1.80
2022-09-05T08:23:21.226Z,1.65
2022-09-05T08:27:49.839Z,1.40
2022-09-05T08:31:56.093Z,1.27
2022-09-05T08:36:07.876Z,1.45
2022-09-05T08:40:20.453Z,1.63
2022-09-05T08:46:43.071Z,1.52
2022-09-05T08:49:24.345Z,1.55
2022-09-05T08:54:07.396Z,1.60
2022-09-05T08:58:28.290Z,1.48
2022-09-05T09:02:48.422Z,1.63
2022-09-05T09:07:48.224Z,1.98
2022-09-05T09:11:55.205Z,1.35
2022-09-05T09:16:05.172Z,1.55
2022-09-05T09:20:15.905Z,1.75
2022-09-05T09:24:40.499Z,1.65
2022-09-05T09:32:57.538Z,1.80
2022-09-05T09:37:13.201Z,1.83
2022-09-05T09:41:37.005Z,1.10
2022-09-05T09:45:58.692Z,2.00
2022-09-05T09:50:19.645Z,1.85
2022-09-05T09:54:40.254Z,1.85
2022-09-05T09:58:47.734Z,1.48
2022-09-05T10:08:14.205Z,2.15
2022-09-05T10:10:48.191Z,1.50
2022-09-05T10:12:24.315Z,1.88
2022-09-05T10:16:26.267Z,1.38
2022-09-05T10:20:39.346Z,1.50
2022-09-05T10:25:27.905Z,1.73
2022-09-05T10:30:06.829Z,1.23
2022-09-05T10:35:17.696Z,1.63
2022-09-05T10:38:44.574Z,1.98
2022-09-05T10:43:00.580Z,1.30
2022-09-05T10:47:21.046Z,1.55
2022-09-05T10:51:31.799Z,1.13
2022-09-05T10:56:00.346Z,1.70
2022-09-05T11:02:23.487Z,1.55
2022-09-05T11:05:04.468Z,1.38
2022-09-05T11:09:07.950Z,1.60
2022-09-05T11:13:31.271Z,1.25
2022-09-05T11:17:44.782Z,1.70
2022-09-05T11:22:10.311Z,1.50
2022-09-05T11:26:27.081Z,1.30
2022-09-05T11:30:38.715Z,1.20
2022-09-05T11:39:57.507Z,1.30
2022-09-05T11:40:09.883Z,1.20
2022-09-05T11:44:27.386Z,1.50
2022-09-05T11:48:46.637Z,1.38
2022-09-05T11:53:10.039Z,1.40
2022-09-05T11:57:42.926Z,1.30
2022-09-05T12:02:23.432Z,1.35
2022-09-05T12:07:27.095Z,1.25
2022-09-05T12:11:52.164Z,1.33
2022-09-05T12:16:08.584Z,1.77
2022-09-05T12:20:22.179Z,1.80
2022-09-05T12:25:15.949Z,1.63
2022-09-05T12:36:06.371Z,1.40
2022-09-05T12:40:15.795Z,1.20
2022-09-05T12:42:10.389Z,1.80
2022-09-05T12:42:38.672Z,1.50
2022-09-05T12:46:45.803Z,1.40
2022-09-05T12:50:56.054Z,1.35
2022-09-05T12:55:01.955Z,1.27
2022-09-05T13:02:58.986Z,1.45
2022-09-05T13:03:29.977Z,1.65
2022-09-05T13:07:44.108Z,1.38
2022-09-05T13:14:50.168Z,1.38
2022-09-05T13:16:23.761Z,1.23
2022-09-05T13:20:36.937Z,1.10
2022-09-05T13:24:41.504Z,1.50
2022-09-05T13:29:09.941Z,1.17
2022-09-05T13:38:08.168Z,1.52
2022-09-05T13:38:21.158Z,1.13
2022-09-05T13:42:10.395Z,1.38
2022-09-05T13:46:18.221Z,1.30
2022-09-05T13:50:41.344Z,1.27
2022-09-05T13:54:51.279Z,2.00
2022-09-05T13:59:01.533Z,1.95
2022-09-05T14:07:59.080Z,1.45
2022-09-05T14:12:03.379Z,1.70
2022-09-05T14:16:08.277Z,1.88
2022-09-05T14:20:42.875Z,1.83
2022-09-05T14:24:46.739Z,1.58
2022-09-05T14:29:14.511Z,1.63
2022-09-05T14:37:40.947Z,1.52
2022-09-05T14:38:16.205Z,1.55
2022-09-05T14:42:59.764Z,1.30
2022-09-05T14:47:02.683Z,1.60
2022-09-05T14:51:04.372Z,1.30
2022-09-05T15:02:50.052Z,2.92
2022-09-05T15:11:25.446Z,1.80
2022-09-05T15:13:00.101Z,1.60
2022-09-05T15:17:05.108Z,1.48
2022-09-05T15:21:33.783Z,1.85
2022-09-05T15:25:48.725Z,1.33
2022-09-05T15:29:55.076Z,1.40
2022-09-05T15:33:56.802Z,1.47
2022-09-05T15:37:58.353Z,1.80
2022-09-05T15:42:13.383Z,1.55
2022-09-05T15:46:22.376Z,1.45
2022-09-05T15:50:26.615Z,1.40
2022-09-05T15:54:38.726Z,1.42
2022-09-05T15:58:53.762Z,1.38
2022-09-05T16:03:25.766Z,1.50
2022-09-05T16:10:29.081Z,1.55
2022-09-05T16:22:09.684Z,1.65
2022-09-05T16:23:27.392Z,2.10
2022-09-05T16:25:05.126Z,1.55
2022-09-05T16:29:26.638Z,1.70
2022-09-05T16:33:31.759Z,1.95
2022-09-05T16:37:51.224Z,1.52
2022-09-05T16:42:00.867Z,1.45
2022-09-05T16:46:14.237Z,1.60
2022-09-05T16:50:23.984Z,1.42
2022-09-05T16:54:33.729Z,1.60
2022-09-05T16:58:48.732Z,1.60
2022-09-05T17:03:28.967Z,1.50
2022-09-05T17:07:41.987Z,1.20
2022-09-05T17:12:00.131Z,2.08
2022-09-05T17:16:03.901Z,1.92
2022-09-05T17:20:14.599Z,1.92
2022-09-05T17:29:15.903Z,1.90
2022-09-05T17:29:48.907Z,1.50
2022-09-05T17:33:29.321Z,1.67
2022-09-05T17:38:11.251Z,1.90
2022-09-05T17:46:29.466Z,1.90
2022-09-05T17:50:33.543Z,2.53
2022-09-05T17:54:35.276Z,1.90
2022-09-05T17:59:23.271Z,13.10
2022-09-05T18:03:37.527Z,9.73
2022-09-05T18:07:44.466Z,15.70
2022-09-05T18:12:07.046Z,14.02
2022-09-05T18:17:35.252Z,11.05
2022-09-05T18:21:21.578Z,3.53
2022-09-05T18:25:28.330Z,2.95
2022-09-05T18:29:58.668Z,2.95
2022-09-05T18:34:15.694Z,2.50
2022-09-05T18:38:50.012Z,2.85
2022-09-05T18:42:48.299Z,2.78
2022-09-05T18:46:52.003Z,2.05
2022-09-05T18:50:54.519Z,2.05
2022-09-05T18:56:09.173Z,2.38
2022-09-05T18:59:53.530Z,2.00
2022-09-05T19:03:58.343Z,3.03
2022-09-05T19:08:03.820Z,2.88
2022-09-05T19:12:31.983Z,2.30
2022-09-05T19:16:47.239Z,2.85
2022-09-05T19:20:55.286Z,2.65
2022-09-05T19:24:57.337Z,2.40
2022-09-05T19:36:50.636Z,2.60
2022-09-05T19:36:54.642Z,3.25
2022-09-05T19:37:50.186Z,3.00
2022-09-05T19:47:29.369Z,3.10
2022-09-05T19:47:48.106Z,2.60
2022-09-05T19:50:37.293Z,3.03
2022-09-05T19:54:40.191Z,2.35
2022-09-05T19:58:45.840Z,3.40
2022-09-05T20:02:51.564Z,3.45
2022-09-05T20:06:53.135Z,3.55
2022-09-05T20:11:09.343Z,3.00
2022-09-05T20:15:36.006Z,3.90
2022-09-05T20:19:37.923Z,2.92
2022-09-05T20:23:48.306Z,3.10
2022-09-05T20:27:50.024Z,3.33
2022-09-05T20:31:51.705Z,2.50
2022-09-05T20:41:53.861Z,3.30
2022-09-05T20:43:30.426Z,3.05
2022-09-05T20:44:50.474Z,3.10
2022-09-05T20:54:10.245Z,3.58
2022-09-05T20:54:14.952Z,3.00
2022-09-05T20:57:44.710Z,3.58
2022-09-05T21:01:55.541Z,3.67
2022-09-05T21:06:11.728Z,3.17
2022-09-05T21:10:19.330Z,3.90
2022-09-05T21:18:33.060Z,3.00
2022-09-05T21:22:43.585Z,3.38
2022-09-05T21:26:47.545Z,3.10
2022-09-05T21:30:49.025Z,4.07
2022-09-05T21:34:53.692Z,3.20
2022-09-05T21:38:55.328Z,3.55
2022-09-05T21:47:36.027Z,3.80
2022-09-05T21:47:46.516Z,4.20
2022-09-05T21:51:48.322Z,3.45
2022-09-05T21:59:13.786Z,2.92
2022-09-05T22:00:14.796Z,3.17
2022-09-05T22:04:17.559Z,3.45
2022-09-05T22:08:19.808Z,2.60
2022-09-05T22:12:30.782Z,2.47
2022-09-05T22:16:33.298Z,2.97
2022-09-05T22:20:34.735Z,2.47
2022-09-05T22:24:37.403Z,2.97
2022-09-05T22:28:46.335Z,2.72
2022-09-05T22:32:47.751Z,3.13
2022-09-05T22:36:50.897Z,3.13
2022-09-05T22:40:56.029Z,2.30
2022-09-05T22:44:58.714Z,2.85
2022-09-05T22:49:00.160Z,3.25
2022-09-05T22:53:06.613Z,2.97
2022-09-05T22:57:08.044Z,3.05
2022-09-05T23:01:10.416Z,2.58
2022-09-05T23:05:11.908Z,3.15
2022-09-05T23:09:13.396Z,2.58
2022-09-05T23:13:14.811Z,3.10
2022-09-05T23:17:16.414Z,3.45
2022-09-05T23:21:17.920Z,3.72
2022-09-05T23:25:19.706Z,3.90
2022-09-05T23:29:21.166Z,3.63
2022-09-05T23:33:22.611Z,3.10
2022-09-05T23:37:24.027Z,3.38
2022-09-05T23:41:25.518Z,3.28
2022-09-05T23:45:27.796Z,3.47
2022-09-05T23:49:29.213Z,3.45
2022-09-05T23:53:30.654Z,3.47
2022-09-05T23:57:32.058Z,3.53
